Estación municipal de Roda de Ter (Osona, Plana de Vic)

Consulta los datos en tiempo real de la estación municipal de Roda de Ter





Hora UTC 06:55
Temperatura 14.5 ºC
Humedad 81.8 %
Pluja 0.0 mm
Velocidad viento 0.5 km/h
Dirección viento SE

Webcam

Datos diarios 2026-05-03



Hora UTC (invierno +1h; verano +2h)
Temperatura (ºC) Humedad (%) Velocidad viento (km/h) Precipitación (mm)
Hora UTC Aire Humedad Vel. Dir. Vel. Max Dir. Intent. máx 5 min.
00:05 13.6 83.5 3.1 S 3.1 S 0.0
00:10 13.6 81.6 2.1 S 7.4 S 0.0
00:15 13.7 83.0 4.4 S 8.5 S 0.0
00:20 13.6 84.7 1.8 S 3.2 S 0.0
00:25 13.6 82.5 0.0 S 1.1 S 0.0
00:30 13.7 82.4 0.0 S 1.1 S 0.0
00:35 13.7 83.7 0.6 S 2.5 S 0.0
00:40 13.7 86.0 1.6 S 3.2 S 0.0
00:45 13.6 84.6 1.5 S 3.5 S 0.0
00:50 13.8 83.8 1.1 S 2.8 S 0.0
00:55 13.8 84.2 1.5 S 3.2 S 0.0
01:00 13.7 84.3 2.3 S 3.5 S 0.0
01:05 13.7 83.0 2.3 S 3.5 S 0.0
01:10 13.7 86.8 1.6 S 3.2 S 0.0
01:15 13.5 87.5 1.8 S 2.8 S 0.0
01:20 13.5 88.2 1.8 S 4.2 S 0.0
01:25 13.4 89.0 1.6 S 4.9 S 0.0
01:30 13.3 89.1 0.5 S 2.8 S 0.0
01:35 13.3 86.7 0.1 S 1.4 S 0.0
01:40 13.5 85.2 0.8 S 2.1 S 0.0
01:45 13.6 83.0 0.6 S 2.1 S 0.0
01:50 13.5 86.5 1.9 S 4.2 S 0.0
01:55 13.3 88.1 1.6 S 3.5 S 0.0
02:00 13.3 86.6 0.2 S 3.2 S 0.0
02:05 13.4 85.6 0.6 S 2.8 S 0.0
02:10 13.3 88.4 0.9 S 3.5 S 0.0
02:15 13.3 87.2 1.4 S 3.5 WSW 0.0
02:20 13.2 86.9 0.7 WSW 3.2 WSW 0.0
02:25 13.3 88.4 0.0 WSW 1.1 WSW 0.0
02:30 13.3 88.7 0.0 NNE 0.0 WSW 0.0
02:35 13.2 89.1 1.2 WSW 2.8 WSW 0.0
02:40 13.2 86.0 0.3 WSW 2.5 WSW 0.0
02:45 13.3 87.2 3.0 WSW 6.4 WSW 0.0
02:50 13.3 85.1 3.6 WSW 6.4 WSW 0.0
02:55 13.3 85.4 3.1 WSW 5.6 WSW 0.0
03:00 13.3 85.4 1.1 WSW 2.8 WSW 0.0
03:05 13.3 86.0 2.1 WSW 4.9 WSW 0.0
03:10 13.3 86.5 0.3 WSW 2.5 WSW 0.0
03:15 13.3 85.1 0.6 WSW 4.2 WSW 0.0
03:20 13.3 82.4 3.0 WSW 3.9 WSW 0.0
03:25 13.4 82.4 3.1 WSW 4.9 WSW 0.0
03:30 13.4 81.1 1.1 WSW 3.9 WSW 0.0
03:35 13.4 81.0 0.6 WSW 2.8 WSW 0.0
03:40 13.4 81.6 1.1 WSW 2.5 WSW 0.0
03:45 13.4 83.5 0.4 WSW 2.1 WSW 0.0
03:50 13.1 87.4 0.2 WSW 2.5 WSW 0.0
03:55 13.3 83.0 1.4 WSW 2.8 WSW 0.0
04:00 13.3 87.4 0.5 WSW 2.1 WSW 0.0
04:05 13.1 85.4 1.8 WSW 3.5 WSW 0.0
04:10 13.0 86.1 0.7 WSW 1.8 WSW 0.0
04:15 12.8 86.0 0.3 WSW 1.4 WSW 0.0
04:20 12.8 88.6 0.0 NNE 0.0 WSW 0.0
04:25 12.7 89.6 0.5 WSW 1.8 WSW 0.0
04:30 12.8 87.4 0.0 NNE 0.0 WSW 0.0
04:35 13.0 87.3 0.7 WSW 2.5 WSW 0.0
04:40 13.0 88.4 1.6 WSW 2.5 WSW 0.0
04:45 13.1 88.1 0.8 WSW 2.5 WSW 0.0
04:50 12.9 90.5 0.0 NNE 0.0 WSW 0.0
04:55 12.7 92.7 0.0 NNE 0.0 WSW 0.0
05:00 12.7 91.8 0.0 NNE 0.0 WSW 0.0
05:05 12.7 92.9 1.2 WSW 3.5 WSW 0.0
05:10 12.6 92.5 1.9 WSW 3.5 WSW 0.0
05:15 12.6 93.1 2.0 WSW 2.8 WSW 0.0
05:20 12.6 92.8 1.4 WSW 2.1 WSW 0.0
05:25 12.7 92.1 2.0 WSW 2.8 WSW 0.0
05:30 12.8 91.8 3.6 SSE 5.3 SE 0.0
05:35 12.8 92.1 5.6 SE 8.1 SE 0.0
05:40 12.8 92.2 5.6 SE 7.4 SE 0.0
05:45 12.8 90.8 4.3 SE 6.4 SE 0.0
05:50 13.0 88.8 3.0 SE 4.2 SE 0.0
05:55 13.1 88.3 0.4 SE 2.1 SSE 0.0
06:00 13.2 91.9 1.5 SE 3.2 SSE 0.0
06:05 13.2 90.1 0.0 NNE 0.0 SE 0.0
06:10 13.3 91.2 0.4 SE 1.4 SE 0.0
06:15 13.5 92.0 0.1 SE 1.4 SE 0.0
06:20 13.6 86.6 0.0 NNE 0.0 SE 0.0
06:25 13.7 83.9 0.0 NNE 0.0 SE 0.0
06:30 13.9 84.5 0.0 SE 1.8 SE 0.0
06:35 14.1 84.4 0.7 SE 2.1 SE 0.0
06:40 14.3 81.2 0.0 NNE 0.0 SE 0.0
06:45 14.3 80.6 0.4 SE 2.8 SE 0.0
06:50 14.4 82.9 0.0 NNE 0.0 SE 0.0
06:55 14.5 81.8 0.5 SE 3.2 SE 0.0
Máxima 14.5 93.1 5.6 SE 8.5 S 0.0
Mínima 12.6 80.6
Total 0.0